Time;durP1;ratioP1;P1;durP2;ratioP2;P2;SDS_P1;SDS_P2;PMS_P1;PMS_P2;Temp;Humidity;BMP_temperature;BMP_pressure;BME280_temperature;BME280_humidity;BME280_pressure;Samples;Min_cycle;Max_cycle;Signal;HPM_P1;HPM_P2
2022/09/22 03:58:20;;;;;;;6.05;4.53;;;;;;;10.43;76.29;100983.78;5606536;31;79795;-55
2022/09/22 04:01:23;;;;;;;6.45;4.50;;;;;;;10.43;76.29;100983.78;5584064;31;33288;-56
2022/09/22 04:04:26;;;;;;;6.78;4.93;;;;;;;9.98;76.93;100993.25;5583737;31;33579;-56
2022/09/22 04:07:28;;;;;;;7.35;4.95;;;;;;;10.01;76.74;100990.03;5583676;31;33553;-56
2022/09/22 04:10:33;;;;;;;6.93;4.43;;;;;;;10.14;76.22;100984.19;5583545;32;34255;-56
2022/09/22 04:13:35;;;;;;;5.87;4.50;;;;;;;10.12;75.95;100991.69;5583939;32;33739;-56
2022/09/22 04:16:41;;;;;;;6.43;4.20;;;;;;;10.10;75.88;100991.16;5583403;31;33628;-56
2022/09/22 04:19:44;;;;;;;5.22;4.00;;;;;;;10.08;75.71;100991.41;5583783;32;33753;-56
2022/09/22 04:22:47;;;;;;;7.90;4.85;;;;;;;10.25;74.82;100977.81;5583547;31;34375;-56
2022/09/22 04:25:49;;;;;;;7.53;4.62;;;;;;;10.11;75.34;100985.53;5583506;31;33230;-56
2022/09/22 04:28:51;;;;;;;9.23;4.35;;;;;;;10.10;75.41;100978.56;5569319;31;33607;-55
2022/09/22 04:31:53;;;;;;;7.15;4.43;;;;;;;10.00;75.58;100988.41;5563623;32;33727;-55
2022/09/22 04:34:55;;;;;;;6.68;4.28;;;;;;;9.92;76.20;100994.28;5563742;32;33671;-56
2022/09/22 04:37:57;;;;;;;8.15;4.93;;;;;;;9.93;76.63;101004.72;5563525;32;33734;-56
2022/09/22 04:41:00;;;;;;;6.95;4.93;;;;;;;9.97;76.74;101007.72;5563860;32;33568;-56
2022/09/22 04:44:02;;;;;;;7.62;5.25;;;;;;;10.10;76.20;101004.56;5563903;32;33965;-56
2022/09/22 04:47:04;;;;;;;7.10;4.80;;;;;;;10.10;75.98;101002.69;5564122;32;33668;-55
2022/09/22 04:50:07;;;;;;;7.12;4.75;;;;;;;10.14;76.32;101008.31;5563363;32;34380;-56
2022/09/22 04:53:12;;;;;;;9.15;4.60;;;;;;;10.16;76.10;101006.16;5562706;32;33598;-56
2022/09/22 04:56:14;;;;;;;6.90;4.75;;;;;;;10.19;75.56;101010.19;5563137;32;33652;-56
2022/09/22 04:59:17;;;;;;;6.80;4.60;;;;;;;10.19;75.62;101004.84;5563259;32;33666;-55
2022/09/22 05:02:19;;;;;;;6.07;4.40;;;;;;;10.23;75.82;101003.25;5564022;32;33769;-56
2022/09/22 05:05:23;;;;;;;7.95;4.75;;;;;;;10.20;75.43;101014.47;5582243;32;33662;-56
2022/09/22 05:08:25;;;;;;;7.68;4.90;;;;;;;10.21;75.13;101008.06;5575506;32;34319;-56
2022/09/22 05:11:29;;;;;;;7.78;4.65;;;;;;;10.13;75.50;101004.00;5568914;32;33710;-56
2022/09/22 05:14:33;;;;;;;8.63;4.68;;;;;;;10.17;75.48;101001.62;5567054;32;34241;-56
2022/09/22 05:17:36;;;;;;;7.50;4.45;;;;;;;10.23;75.15;100995.19;5569663;32;34425;-55
2022/09/22 05:20:38;;;;;;;9.55;4.70;;;;;;;10.05;75.12;101004.50;5569573;32;34447;-55
2022/09/22 05:23:40;;;;;;;8.10;4.87;;;;;;;10.06;75.27;101008.81;5569108;32;33719;-56
2022/09/22 05:26:42;;;;;;;11.85;5.30;;;;;;;10.08;75.18;101004.00;5568810;32;33730;-56
2022/09/22 05:29:45;;;;;;;9.63;5.03;;;;;;;10.20;75.10;101001.09;5568933;32;34316;-56
2022/09/22 05:32:48;;;;;;;10.85;4.90;;;;;;;10.17;75.27;101007.00;5568644;32;33574;-56
2022/09/22 05:35:50;;;;;;;8.85;5.25;;;;;;;10.24;75.38;101003.00;5568865;32;33191;-56
2022/09/22 05:38:52;;;;;;;8.43;5.03;;;;;;;10.43;74.88;100999.84;5568598;32;33697;-57
2022/09/22 05:41:54;;;;;;;7.60;5.50;;;;;;;10.47;74.44;101009.81;5569180;32;33521;-55
2022/09/22 05:44:56;;;;;;;10.27;5.80;;;;;;;10.40;75.81;101008.41;5569423;32;35341;-56
2022/09/22 05:47:59;;;;;;;10.65;5.95;;;;;;;10.42;75.21;101014.34;5569142;32;34384;-55
2022/09/22 05:51:01;;;;;;;12.27;6.37;;;;;;;10.55;75.34;101013.84;5569262;32;33595;-55
2022/09/22 05:54:03;;;;;;;9.60;5.22;;;;;;;10.61;74.89;101012.78;5568528;32;33808;-56
2022/09/22 05:57:05;;;;;;;9.85;6.07;;;;;;;10.64;75.58;101020.31;5568689;32;33641;-56
2022/09/22 06:00:09;;;;;;;8.98;5.60;;;;;;;10.68;75.61;101017.91;5568678;32;34339;-55
2022/09/22 06:03:12;;;;;;;8.40;5.35;;;;;;;10.70;74.85;101011.19;5569038;32;34130;-56
2022/09/22 06:06:14;;;;;;;11.20;5.47;;;;;;;10.80;75.15;101013.09;5568756;32;33666;-56
2022/09/22 06:09:16;;;;;;;9.07;6.03;;;;;;;10.85;75.31;101013.09;5568934;32;34351;-56
2022/09/22 06:12:19;;;;;;;13.55;6.93;;;;;;;10.97;74.86;101010.97;5568699;32;33788;-56
2022/09/22 06:15:21;;;;;;;9.63;6.18;;;;;;;11.03;74.14;101015.28;5569074;32;33385;-56
2022/09/22 06:18:24;;;;;;;8.93;5.57;;;;;;;11.01;74.65;101027.34;5568498;32;33638;-55
2022/09/22 06:21:27;;;;;;;9.70;5.70;;;;;;;11.03;74.79;101025.19;5568116;32;33726;-56
2022/09/22 06:24:29;;;;;;;10.70;5.90;;;;;;;11.01;75.24;101025.44;5568670;32;33583;-56
2022/09/22 06:27:31;;;;;;;10.35;5.55;;;;;;;11.04;75.61;101026.81;5568752;32;34198;-55
2022/09/22 06:30:35;;;;;;;8.88;5.57;;;;;;;11.24;75.53;101023.31;5568418;32;33725;-56
2022/09/22 06:33:37;;;;;;;10.60;5.57;;;;;;;11.31;74.76;101029.22;5567740;32;34289;-56
2022/09/22 06:36:41;;;;;;;9.90;5.10;;;;;;;11.53;74.79;101023.56;5568403;32;34336;-56
2022/09/22 06:39:43;;;;;;;12.02;5.55;;;;;;;11.77;73.61;101021.09;5568739;32;33638;-56
2022/09/22 06:42:46;;;;;;;11.38;5.10;;;;;;;11.92;72.65;101017.59;5568703;32;33662;-55
2022/09/22 06:45:50;;;;;;;8.07;5.45;;;;;;;11.95;72.32;101023.25;5566924;32;33336;-56
2022/09/22 06:48:56;;;;;;;8.93;6.28;;;;;;;11.91;73.07;101030.22;5561224;32;33921;-56
2022/09/22 06:51:58;;;;;;;8.25;5.72;;;;;;;11.96;71.66;101022.16;5568143;32;34391;-57
2022/09/22 06:55:01;;;;;;;11.73;6.25;;;;;;;12.03;71.21;101029.94;5567601;32;34390;-56
2022/09/22 06:58:03;;;;;;;8.65;5.12;;;;;;;12.19;71.79;101020.75;5568192;32;33702;-55
2022/09/22 07:01:06;;;;;;;7.28;5.35;;;;;;;12.36;71.05;101019.59;5567578;32;33590;-56
2022/09/22 07:04:11;;;;;;;7.30;5.40;;;;;;;12.40;71.53;101017.97;5568126;32;33932;-55
2022/09/22 07:07:13;;;;;;;10.57;5.47;;;;;;;12.51;71.10;101016.81;5567882;32;33620;-57
2022/09/22 07:10:16;;;;;;;7.55;4.78;;;;;;;12.50;69.89;101017.09;5568094;32;33792;-55
2022/09/22 07:13:18;;;;;;;8.95;5.12;;;;;;;12.61;69.73;101011.38;5567773;32;34367;-56
2022/09/22 07:16:23;;;;;;;6.68;5.00;;;;;;;12.69;69.60;101002.75;5567831;32;33915;-56
2022/09/22 07:19:25;;;;;;;10.38;4.85;;;;;;;12.81;69.71;101007.75;5568349;32;33749;-55
2022/09/22 07:22:27;;;;;;;8.32;5.03;;;;;;;12.91;69.40;101010.41;5568078;32;34129;-55
2022/09/22 07:25:33;;;;;;;6.28;4.50;;;;;;;13.03;69.49;101009.22;5567171;32;33691;-56
2022/09/22 07:28:36;;;;;;;11.07;6.85;;;;;;;13.02;68.23;101013.03;5567545;32;33801;-56
2022/09/22 07:31:40;;;;;;;8.82;4.70;;;;;;;13.13;68.17;101012.63;5567003;32;33689;-55
2022/09/22 07:34:43;;;;;;;24.15;6.05;;;;;;;13.27;68.30;101017.41;5565529;32;33626;-56
2022/09/22 07:37:46;;;;;;;5.70;4.35;;;;;;;13.22;67.95;101010.16;5561792;32;34348;-56
2022/09/22 07:40:52;;;;;;;8.48;4.70;;;;;;;13.30;67.50;101014.94;5567966;32;33603;-55
2022/09/22 07:43:56;;;;;;;10.63;4.00;;;;;;;13.37;66.99;101018.12;5567329;32;33770;-56
2022/09/22 07:46:59;;;;;;;8.25;4.35;;;;;;;13.50;65.79;101019.34;5567773;32;33726;-55
2022/09/22 07:50:03;;;;;;;7.28;4.12;;;;;;;13.60;64.81;101015.75;5567624;32;33599;-55
2022/09/22 07:53:05;;;;;;;10.57;5.12;;;;;;;13.64;65.87;101016.78;5567822;32;33691;-55
2022/09/22 07:56:13;;;;;;;5.30;3.90;;;;;;;13.69;64.84;101021.34;5567946;32;34298;-56
2022/09/22 07:59:16;;;;;;;5.00;3.50;;;;;;;13.67;64.31;101020.81;5567311;32;32665;-55
2022/09/22 08:02:19;;;;;;;6.05;3.53;;;;;;;13.73;65.57;101023.16;5567221;32;33846;-56
2022/09/22 08:05:23;;;;;;;7.45;3.42;;;;;;;13.82;65.58;101032.25;5568078;32;33273;-56
2022/09/22 08:08:26;;;;;;;5.90;3.53;;;;;;;13.81;65.75;101033.34;5566546;32;33639;-55
2022/09/22 08:11:28;;;;;;;4.97;3.00;;;;;;;13.86;63.52;101027.06;5566853;32;33675;-55
2022/09/22 08:14:30;;;;;;;11.30;4.93;;;;;;;14.04;64.65;101031.75;5566703;32;33740;-56
2022/09/22 08:17:32;;;;;;;7.22;3.55;;;;;;;14.13;64.34;101031.88;5564227;32;33882;-56
2022/09/22 08:20:34;;;;;;;5.97;3.85;;;;;;;14.15;63.14;101037.81;5566756;32;33774;-56
2022/09/22 08:23:37;;;;;;;5.75;3.33;;;;;;;14.28;61.51;101039.00;5565899;32;33623;-55
2022/09/22 08:26:42;;;;;;;6.10;3.50;;;;;;;14.27;62.01;101037.37;5566077;32;33596;-56
2022/09/22 08:29:49;;;;;;;4.60;2.78;;;;;;;14.43;62.49;101036.09;5567377;32;34408;-56
2022/09/22 08:32:52;;;;;;;12.50;3.50;;;;;;;14.46;59.06;101026.63;5566397;32;33731;-56
2022/09/22 08:35:57;;;;;;;6.43;3.37;;;;;;;14.60;57.90;101029.44;5552711;32;33472;-56
2022/09/22 08:39:01;;;;;;;9.80;3.80;;;;;;;14.64;57.24;101027.78;5551622;32;33724;-56
2022/09/22 08:42:08;;;;;;;4.32;3.45;;;;;;;14.78;57.83;101021.34;5554248;32;33712;-56
2022/09/22 08:45:32;;;;;;;8.02;4.00;;;;;;;14.84;56.97;101024.78;5564557;32;34142;-55
2022/09/22 08:52:14;;;;;;;7.15;3.28;;;;;;;14.86;58.11;101022.59;5566269;32;34238;-56
2022/09/22 08:55:20;;;;;;;6.20;3.85;;;;;;;15.05;57.11;101017.16;5567572;32;34332;-56
2022/09/22 08:58:35;;;;;;;5.43;3.67;;;;;;;15.07;56.86;101019.59;5567014;32;33815;-56
2022/09/22 09:01:56;;;;;;;4.55;3.25;;;;;;;15.07;56.92;101025.00;5567592;32;34431;-56
2022/09/22 09:05:40;;;;;;;5.22;3.30;;;;;;;14.97;56.36;101017.84;5566541;32;33690;-55
2022/09/22 09:09:03;;;;;;;4.35;3.05;;;;;;;14.99;56.01;101012.94;5538195;32;33647;-56
2022/09/22 09:12:15;;;;;;;5.75;3.30;;;;;;;15.11;55.03;101009.78;5565851;32;34522;-56
2022/09/22 09:15:38;;;;;;;5.00;2.90;;;;;;;15.12;56.71;101014.88;5567893;32;33116;-56
2022/09/22 09:18:59;;;;;;;4.32;3.05;;;;;;;15.28;57.83;101018.16;5567315;32;34246;-56
2022/09/22 09:22:18;;;;;;;5.20;3.00;;;;;;;15.43;55.94;101006.25;5561100;32;33777;-56
2022/09/22 09:25:35;;;;;;;6.62;3.25;;;;;;;15.42;55.18;101008.16;5567737;32;33321;-56
2022/09/22 09:28:46;;;;;;;9.43;3.70;;;;;;;15.49;56.60;101010.47;5564022;32;34454;-56
2022/09/22 09:31:52;;;;;;;19.70;4.45;;;;;;;15.64;55.68;101006.72;5564320;32;34379;-56
2022/09/22 09:34:54;;;;;;;6.70;3.50;;;;;;;15.69;55.98;101014.75;5563336;32;33977;-56
2022/09/22 09:38:00;;;;;;;4.85;3.15;;;;;;;15.74;54.49;101012.75;5565471;32;33635;-55
2022/09/22 09:41:14;;;;;;;6.97;3.37;;;;;;;15.68;55.77;101010.44;5563066;32;33814;-55
2022/09/22 09:44:23;;;;;;;4.47;3.05;;;;;;;15.79;56.32;101013.75;5568739;32;33770;-55
2022/09/22 09:47:39;;;;;;;5.35;3.22;;;;;;;15.81;55.29;101019.69;5551117;32;33762;-54
2022/09/22 09:50:42;;;;;;;7.37;3.10;;;;;;;15.86;53.74;101012.28;5567565;32;33892;-54
2022/09/22 09:53:46;;;;;;;5.25;2.92;;;;;;;15.78;54.36;101012.16;5567455;32;33782;-54
2022/09/22 09:57:11;;;;;;;5.50;2.58;;;;;;;15.66;57.23;101018.00;5568270;32;34335;-54
2022/09/22 10:00:31;;;;;;;5.07;2.70;;;;;;;15.59;54.63;101012.19;5567950;32;34396;-54
2022/09/22 10:03:40;;;;;;;5.25;2.92;;;;;;;15.47;55.85;101010.78;5559136;32;33831;-54
2022/09/22 10:06:42;;;;;;;4.47;2.80;;;;;;;15.50;55.69;101004.00;5566395;32;34279;-54
2022/09/22 10:09:47;;;;;;;3.97;2.80;;;;;;;15.55;54.48;101001.19;5561487;32;34558;-54
2022/09/22 10:12:49;;;;;;;3.83;2.70;;;;;;;15.69;54.33;101004.75;5565644;32;33850;-54
2022/09/22 10:16:20;;;;;;;8.25;3.50;;;;;;;15.96;53.05;101009.38;5568221;32;33688;-55
2022/09/22 10:19:30;;;;;;;8.20;3.62;;;;;;;15.96;53.06;101003.16;5560285;32;34399;-55
2022/09/22 10:22:34;;;;;;;4.57;3.10;;;;;;;16.01;52.52;100994.13;5557808;32;33546;-55
2022/09/22 10:25:41;;;;;;;5.87;2.92;;;;;;;15.98;53.97;101001.75;5557529;32;34326;-54
2022/09/22 10:28:49;;;;;;;3.55;2.90;;;;;;;16.12;53.47;101006.34;5567496;32;34776;-55
2022/09/22 10:32:13;;;;;;;5.75;3.08;;;;;;;16.01;51.89;101010.37;5566440;32;34416;-54
2022/09/22 10:35:29;;;;;;;3.28;2.87;;;;;;;15.93;52.14;101007.25;5547923;32;33774;-54
2022/09/22 10:38:39;;;;;;;3.67;2.65;;;;;;;15.84;53.30;101006.34;5549026;32;34444;-54
2022/09/22 10:41:45;;;;;;;5.28;2.40;;;;;;;15.83;53.64;101010.16;5561128;32;34837;-54
2022/09/22 10:44:50;;;;;;;4.12;2.80;;;;;;;15.82;53.36;101005.06;5568660;32;33755;-54
2022/09/22 10:48:14;;;;;;;5.30;2.60;;;;;;;15.69;54.16;101010.16;5556026;32;34394;-54
2022/09/22 10:51:53;;;;;;;5.62;2.55;;;;;;;15.65;55.54;101003.69;5567416;32;33665;-55
2022/09/22 10:55:18;;;;;;;4.37;2.83;;;;;;;15.58;56.12;101006.00;5542055;31;33613;-54
2022/09/22 10:58:26;;;;;;;4.95;2.80;;;;;;;15.56;55.92;100993.88;5563382;32;33796;-54
2022/09/22 11:02:05;;;;;;;3.33;2.47;;;;;;;15.49;55.89;100991.56;5564094;32;33704;-54
2022/09/22 11:12:15;;;;;;;7.43;2.80;;;;;;;15.51;55.94;100981.28;5549103;31;33699;-55
2022/09/22 11:12:45;;;;;;;5.25;2.75;;;;;;;15.81;53.76;100982.63;5563239;32;34400;-54
2022/09/22 11:16:05;;;;;;;5.85;3.40;;;;;;;16.10;51.60;100976.09;5565171;32;32029;-54
2022/09/22 11:19:12;;;;;;;7.35;2.92;;;;;;;15.96;51.73;100970.72;5562777;32;33659;-54
2022/09/22 11:22:17;;;;;;;;;;;;;;;16.00;52.58;100960.91;5565462;32;32317;-55
2022/09/22 11:25:31;;;;;;;3.28;2.55;;;;;;;16.09;51.08;100956.38;5566173;32;34742;-54
2022/09/22 11:28:49;;;;;;;3.80;2.67;;;;;;;16.24;50.14;100957.94;5564604;31;33693;-54
2022/09/22 11:32:16;;;;;;;6.72;2.70;;;;;;;16.18;51.19;100951.84;5555039;32;35028;-55
2022/09/22 11:35:44;;;;;;;6.90;2.80;;;;;;;16.28;51.67;100952.72;5566285;32;33633;-55
2022/09/22 11:39:08;;;;;;;4.03;2.30;;;;;;;16.23;52.62;100956.34;5557866;32;33046;-54
2022/09/22 11:42:23;;;;;;;4.70;3.05;;;;;;;16.11;54.38;100946.03;5561775;32;34435;-54
2022/09/22 11:45:54;;;;;;;3.62;2.17;;;;;;;16.04;52.85;100947.56;5566726;32;34032;-54
2022/09/22 11:49:06;;;;;;;3.90;2.60;;;;;;;15.99;51.88;100948.44;5566128;32;34443;-54
2022/09/22 11:52:42;;;;;;;7.55;2.75;;;;;;;16.09;51.87;100942.84;5565864;32;34261;-55
2022/09/22 11:55:55;;;;;;;3.50;2.62;;;;;;;16.14;51.94;100940.03;5564841;32;34473;-55
2022/09/22 11:59:04;;;;;;;5.45;2.70;;;;;;;16.06;50.62;100937.22;5559153;32;33724;-55
2022/09/22 12:02:28;;;;;;;5.60;2.90;;;;;;;16.01;52.41;100940.06;5561601;32;33713;-55
2022/09/22 12:05:42;;;;;;;5.05;2.33;;;;;;;16.01;54.22;100930.03;5564414;32;33722;-55
2022/09/22 12:08:55;;;;;;;3.70;2.50;;;;;;;16.11;54.64;100918.19;5557300;32;33852;-55
2022/09/22 12:11:59;;;;;;;4.62;2.60;;;;;;;16.14;53.77;100912.97;5557801;32;34429;-55
2022/09/22 12:15:39;;;;;;;3.97;2.60;;;;;;;16.24;51.64;100903.84;5558405;32;32060;-55
2022/09/22 12:19:00;;;;;;;4.65;2.95;;;;;;;16.33;51.22;100907.44;5554334;32;33694;-55
2022/09/22 12:22:09;;;;;;;6.07;3.30;;;;;;;16.49;50.86;100916.00;5558818;32;32846;-55
2022/09/22 12:25:14;;;;;;;6.32;3.40;;;;;;;16.62;52.69;100927.84;5565221;32;32326;-55
2022/09/22 12:28:39;;;;;;;5.00;3.40;;;;;;;16.48;54.47;100927.09;5566628;31;33720;-55
2022/09/22 12:31:47;;;;;;;7.12;3.65;;;;;;;16.41;56.26;100917.50;5567215;32;33764;-54
2022/09/22 12:34:50;;;;;;;5.45;3.25;;;;;;;16.41;55.95;100922.13;5566833;32;32217;-55
2022/09/22 12:37:53;;;;;;;6.75;3.00;;;;;;;16.27;58.93;100926.78;5563689;32;33890;-55
2022/09/22 12:40:58;;;;;;;6.82;3.10;;;;;;;16.17;60.13;100928.59;5564208;32;34119;-55
2022/09/22 12:44:11;;;;;;;6.03;3.15;;;;;;;16.11;61.33;100935.22;5566322;32;33726;-55
2022/09/22 12:47:18;;;;;;;5.87;3.42;;;;;;;16.16;60.22;100923.50;5563229;32;33663;-56
2022/09/22 12:50:23;;;;;;;6.18;3.12;;;;;;;16.19;60.23;100931.81;5562382;32;33693;-56
2022/09/22 12:53:27;;;;;;;4.72;2.80;;;;;;;16.18;60.41;100929.41;5557943;32;33651;-55
2022/09/22 12:56:45;;;;;;;6.35;3.30;;;;;;;16.18;60.73;100929.41;5563270;32;33703;-55
2022/09/22 13:00:19;;;;;;;7.12;3.30;;;;;;;16.07;60.95;100928.03;5565008;32;33764;-55
2022/09/22 13:03:24;;;;;;;5.72;3.15;;;;;;;15.90;62.57;100932.16;5560292;32;34437;-55
2022/09/22 13:06:26;;;;;;;7.90;3.42;;;;;;;15.89;63.86;100935.97;5565543;32;34386;-55
2022/09/22 13:09:29;;;;;;;7.68;3.58;;;;;;;15.77;68.39;100941.09;5567976;32;33619;-56
2022/09/22 13:12:31;;;;;;;7.28;4.55;;;;;;;15.77;70.68;100929.47;5568071;32;33817;-55
2022/09/22 13:15:49;;;;;;;6.12;4.35;;;;;;;15.80;71.58;100913.44;5566086;32;32260;-56
2022/09/22 13:18:52;;;;;;;7.18;4.15;;;;;;;15.82;70.16;100903.12;5564746;32;33782;-55
2022/09/22 13:21:55;;;;;;;8.52;5.00;;;;;;;15.84;73.50;100908.25;5564582;32;33687;-55
2022/09/22 13:24:57;;;;;;;5.82;4.87;;;;;;;15.82;72.96;100905.03;5561279;32;33281;-55
2022/09/22 13:28:08;;;;;;;5.93;4.53;;;;;;;15.79;71.41;100901.00;5565478;32;33688;-55
2022/09/22 13:31:15;;;;;;;6.87;4.32;;;;;;;15.87;70.48;100896.81;5561789;32;33891;-55
2022/09/22 13:34:33;;;;;;;6.00;4.28;;;;;;;15.74;67.87;100890.31;5563280;32;34123;-55
2022/09/22 13:37:35;;;;;;;11.32;4.60;;;;;;;15.77;69.04;100886.22;5563728;32;34517;-55
2022/09/22 13:40:46;;;;;;;5.15;3.83;;;;;;;15.85;68.84;100891.69;5568323;32;33916;-55
2022/09/22 13:43:53;;;;;;;4.20;3.42;;;;;;;16.00;67.06;100884.37;5568947;32;33782;-55
2022/09/22 13:46:59;;;;;;;6.80;3.97;;;;;;;16.04;65.18;100877.25;5567428;32;33930;-55
2022/09/22 13:50:06;;;;;;;10.50;4.07;;;;;;;16.02;65.13;100880.25;5567133;32;33440;-55
2022/09/22 13:53:08;;;;;;;6.03;3.62;;;;;;;16.04;64.58;100877.25;5566348;32;33621;-54
2022/09/22 13:56:14;;;;;;;7.57;3.50;;;;;;;16.05;64.81;100871.53;5566493;32;33912;-56
2022/09/22 13:59:30;;;;;;;7.15;3.80;;;;;;;16.07;63.82;100871.25;5566759;32;33680;-55
2022/09/22 14:02:32;;;;;;;8.45;3.67;;;;;;;16.00;64.10;100868.94;5566961;32;34462;-55
2022/09/22 14:05:35;;;;;;;5.25;3.55;;;;;;;16.13;62.86;100861.91;5565779;32;34359;-55
2022/09/22 14:08:38;;;;;;;6.22;3.62;;;;;;;16.04;62.09;100867.22;5568231;32;34341;-55
2022/09/22 14:11:40;;;;;;;6.18;3.05;;;;;;;16.08;62.25;100864.72;5567831;32;34422;-55
2022/09/22 14:14:42;;;;;;;5.35;3.45;;;;;;;16.20;58.81;100865.00;5568183;32;33538;-54
2022/09/22 14:17:45;;;;;;;6.22;3.47;;;;;;;16.14;60.32;100860.78;5568984;32;33649;-55
2022/09/22 14:20:47;;;;;;;5.87;3.30;;;;;;;16.15;59.54;100854.28;5567005;32;33279;-55
2022/09/22 14:23:50;;;;;;;8.07;3.53;;;;;;;16.07;60.44;100858.50;5564715;32;33699;-55
2022/09/22 14:26:57;;;;;;;6.55;3.15;;;;;;;16.06;60.26;100850.69;5564918;32;34347;-56
2022/09/22 14:30:14;;;;;;;5.07;3.17;;;;;;;16.08;60.15;100851.19;5567358;32;34455;-54
2022/09/22 14:33:25;;;;;;;6.05;4.10;;;;;;;16.06;61.13;100856.09;5566980;32;34261;-55
2022/09/22 14:36:28;;;;;;;4.72;2.85;;;;;;;16.02;59.66;100852.41;5563751;32;32371;-55
2022/09/22 14:39:32;;;;;;;3.92;3.12;;;;;;;16.03;58.25;100849.41;5561515;32;33919;-54
2022/09/22 14:42:36;;;;;;;4.85;2.83;;;;;;;16.07;59.00;100847.69;5566428;31;33644;-55
2022/09/22 14:45:55;;;;;;;8.10;2.97;;;;;;;16.09;60.34;100848.19;5567386;32;33767;-54
2022/09/22 14:49:21;;;;;;;4.07;2.42;;;;;;;16.19;60.36;100847.13;5567086;32;34454;-55
2022/09/22 14:52:29;;;;;;;3.08;2.75;;;;;;;16.11;55.71;100850.59;5559549;31;33626;-54
2022/09/22 14:55:37;;;;;;;4.05;2.90;;;;;;;16.09;55.63;100847.37;5562216;32;33570;-55
2022/09/22 14:58:42;;;;;;;4.05;3.08;;;;;;;16.14;57.20;100842.66;5557363;32;33810;-55
2022/09/22 15:05:10;;;;;;;5.60;3.60;;;;;;;16.15;58.25;100851.56;5555582;32;34511;-54
2022/09/22 15:08:20;;;;;;;5.15;3.45;;;;;;;16.20;58.87;100860.37;5549626;32;33799;-55
2022/09/22 15:11:52;;;;;;;7.62;3.60;;;;;;;16.11;60.28;100864.09;5549687;32;33825;-55
2022/09/22 15:14:58;;;;;;;7.60;3.50;;;;;;;16.06;61.79;100862.31;5566900;32;33714;-55
2022/09/22 15:18:12;;;;;;;3.97;2.90;;;;;;;16.19;61.83;100858.78;5568256;32;34286;-55
2022/09/22 15:21:14;;;;;;;4.18;3.00;;;;;;;16.14;55.69;100856.19;5568527;32;34452;-54
2022/09/22 15:24:25;;;;;;;4.68;3.22;;;;;;;15.95;59.90;100855.53;5568414;32;33764;-55
2022/09/22 15:27:27;;;;;;;6.32;3.35;;;;;;;15.91;66.23;100868.06;5567897;32;33648;-55
2022/09/22 15:30:31;;;;;;;3.85;2.80;;;;;;;15.80;63.65;100864.78;5567936;32;34525;-55
2022/09/22 15:33:34;;;;;;;3.80;3.10;;;;;;;15.75;60.49;100862.19;5568220;32;33656;-55
